Αρχική σελίδα
METAR-TAF:

METAR-TAF

Αεροδρόμια :

Κουρασάο, Ολλανδικές Αντίλλες

γεωγραφικό πλάτος: 12-12N, γεωγραφικό μήκος: 068-58W, υψόμετρο: 9 μ

Παρών καιρός

Η αναφορά έγινε 33 λεπτά πριν, στις 18:00 UTC
Άνεμος 13 kt από Α
Θερμοκρασία 31°C
Υγρασία 66%
Πίεση 1011 hPa
Ορατότητα 10 χλμ και άνω
Λίγα νέφη σε ύψος 2300 πόδια

METAR: TNCC 161800Z 10013KT 9999 FEW023 31/24 Q1011 NOSIG

Χρόνος: 14:33 (18:33 UTC)

Πρόγνωση Καιρού

Η αναφορά έγινε 3 ώρες και 3 λεπτά πριν, στις 15:30 UTC
Η πρόγνωση ισχύει από τις 16 στις 18 UTC έως τις 17 στις 18 UTC
Άνεμος 15 kt από Α/NA
Ορατότητα 10 χλμ και άνω
Διάσπαρτα νέφη σε ύψος 2000 πόδια
Προσωρινά
από 17 στις 03 UTC έως τις 17 στις 16 UTC
Ορατότητα: 5000 μ
Αρκετά νέφη σε ύψος 1500 πόδια
Όμβροι

TAF: TNCC 161530Z 1618/1718 11015KT 9999 SCT020 TEMPO 1703/1716 5000 SHRA BKN015

Μετεωρολογικές αναφορές και προγνώσεις για περισσότερα από 4000 αεροδρόμια (δελτία METAR και TAF).

Οι διαθέσιμοι σταθμοί απεικονίζονται στο χάρτη με κίτρινες και κόκκινες κουκκίδες.

Μετακινήστε το ποντίκι πάνω από τις κουκκίδες για να δείτε το όνομα του σταθμού.

Στη συνέχεια, κάντε κλικ για να δείτε τις μετεωρολογικές αναφορές και τις προγνώσεις καιρού.

Για να αλλάξετε το χάρτη: κάντε κλικ στα πράσινα κουμπιά με τον μαύρο σταυρό για να ζουμάρετε, στο πράσινο κουμπί με την παύλα για να αφαιρέσετε το ζουμ ή στα πράσινα βέλη για να αντιπαραβάλλετε χάρτες.


METAR-TAF: